sensor_id;sensor_type;location;lat;lon;timestamp;temperature;humidity
34837;DHT22;21053;50.848;4.652;2023-05-29T00:01:07;17.00;94.10
34837;DHT22;21053;50.848;4.652;2023-05-29T00:03:34;16.90;94.30
34837;DHT22;21053;50.848;4.652;2023-05-29T00:06:05;16.90;94.00
34837;DHT22;21053;50.848;4.652;2023-05-29T00:08:34;16.90;94.20
34837;DHT22;21053;50.848;4.652;2023-05-29T00:11:01;17.00;94.30
34837;DHT22;21053;50.848;4.652;2023-05-29T00:13:33;16.90;94.40
34837;DHT22;21053;50.848;4.652;2023-05-29T00:16:02;16.80;94.40
34837;DHT22;21053;50.848;4.652;2023-05-29T00:18:32;16.70;94.50
34837;DHT22;21053;50.848;4.652;2023-05-29T00:21:01;16.70;94.70
34837;DHT22;21053;50.848;4.652;2023-05-29T00:23:28;16.60;94.70
34837;DHT22;21053;50.848;4.652;2023-05-29T00:25:57;16.60;94.60
34837;DHT22;21053;50.848;4.652;2023-05-29T00:28:25;16.60;94.70
34837;DHT22;21053;50.848;4.652;2023-05-29T00:30:54;16.60;94.80
34837;DHT22;21053;50.848;4.652;2023-05-29T00:33:23;16.60;94.80
34837;DHT22;21053;50.848;4.652;2023-05-29T00:35:52;16.50;95.00
34837;DHT22;21053;50.848;4.652;2023-05-29T00:38:19;16.40;95.00
34837;DHT22;21053;50.848;4.652;2023-05-29T00:40:45;16.30;95.30
34837;DHT22;21053;50.848;4.652;2023-05-29T00:43:14;16.30;95.30
34837;DHT22;21053;50.848;4.652;2023-05-29T00:45:41;16.30;95.40
34837;DHT22;21053;50.848;4.652;2023-05-29T00:48:09;16.30;95.40
34837;DHT22;21053;50.848;4.652;2023-05-29T00:50:38;16.20;95.50
34837;DHT22;21053;50.848;4.652;2023-05-29T00:53:04;16.20;95.40
34837;DHT22;21053;50.848;4.652;2023-05-29T00:55:31;16.20;95.80
34837;DHT22;21053;50.848;4.652;2023-05-29T00:57:57;16.10;95.90
34837;DHT22;21053;50.848;4.652;2023-05-29T01:00:33;16.10;95.90
34837;DHT22;21053;50.848;4.652;2023-05-29T01:03:04;16.00;96.00
34837;DHT22;21053;50.848;4.652;2023-05-29T01:05:40;16.00;96.00
34837;DHT22;21053;50.848;4.652;2023-05-29T01:08:10;15.90;96.20
34837;DHT22;21053;50.848;4.652;2023-05-29T01:10:39;15.90;96.40
34837;DHT22;21053;50.848;4.652;2023-05-29T01:13:25;15.80;96.60
34837;DHT22;21053;50.848;4.652;2023-05-29T01:16:13;15.80;96.50
34837;DHT22;21053;50.848;4.652;2023-05-29T01:18:57;15.70;96.30
34837;DHT22;21053;50.848;4.652;2023-05-29T01:21:42;15.70;96.80
34837;DHT22;21053;50.848;4.652;2023-05-29T01:27:17;15.50;97.40
34837;DHT22;21053;50.848;4.652;2023-05-29T01:29:47;15.40;97.60
34837;DHT22;21053;50.848;4.652;2023-05-29T01:32:17;15.40;97.70
34837;DHT22;21053;50.848;4.652;2023-05-29T01:34:45;15.30;97.90
34837;DHT22;21053;50.848;4.652;2023-05-29T01:37:14;15.30;98.10
34837;DHT22;21053;50.848;4.652;2023-05-29T01:39:42;15.20;98.20
34837;DHT22;21053;50.848;4.652;2023-05-29T01:42:12;15.10;98.50
34837;DHT22;21053;50.848;4.652;2023-05-29T01:44:38;15.00;99.00
34837;DHT22;21053;50.848;4.652;2023-05-29T01:47:06;15.00;99.20
34837;DHT22;21053;50.848;4.652;2023-05-29T01:49:35;14.90;99.30
34837;DHT22;21053;50.848;4.652;2023-05-29T01:52:05;14.90;99.50
34837;DHT22;21053;50.848;4.652;2023-05-29T01:54:32;14.90;99.60
34837;DHT22;21053;50.848;4.652;2023-05-29T01:57:02;14.90;99.40
34837;DHT22;21053;50.848;4.652;2023-05-29T01:59:31;14.90;99.50
34837;DHT22;21053;50.848;4.652;2023-05-29T02:02:09;14.80;99.90
34837;DHT22;21053;50.848;4.652;2023-05-29T02:04:37;14.80;99.90
34837;DHT22;21053;50.848;4.652;2023-05-29T02:07:10;14.80;99.90
34837;DHT22;21053;50.848;4.652;2023-05-29T02:09:43;14.70;99.90
34837;DHT22;21053;50.848;4.652;2023-05-29T02:12:12;14.60;99.90
34837;DHT22;21053;50.848;4.652;2023-05-29T02:14:41;14.60;99.90
34837;DHT22;21053;50.848;4.652;2023-05-29T02:17:08;14.70;99.90
34837;DHT22;21053;50.848;4.652;2023-05-29T02:19:34;14.60;99.90
34837;DHT22;21053;50.848;4.652;2023-05-29T02:22:04;14.60;99.90
34837;DHT22;21053;50.848;4.652;2023-05-29T02:24:33;14.50;99.90
34837;DHT22;21053;50.848;4.652;2023-05-29T02:27:02;14.40;99.90
34837;DHT22;21053;50.848;4.652;2023-05-29T02:29:31;14.50;99.90
34837;DHT22;21053;50.848;4.652;2023-05-29T02:32:00;14.60;99.90
34837;DHT22;21053;50.848;4.652;2023-05-29T02:34:32;14.60;99.90
34837;DHT22;21053;50.848;4.652;2023-05-29T02:36:59;14.50;99.90
34837;DHT22;21053;50.848;4.652;2023-05-29T02:39:28;14.50;99.90
34837;DHT22;21053;50.848;4.652;2023-05-29T02:41:57;14.50;99.90
34837;DHT22;21053;50.848;4.652;2023-05-29T02:44:24;14.50;99.90
34837;DHT22;21053;50.848;4.652;2023-05-29T02:46:57;14.50;99.90
34837;DHT22;21053;50.848;4.652;2023-05-29T02:49:26;14.40;99.90
34837;DHT22;21053;50.848;4.652;2023-05-29T02:51:54;14.40;99.90
34837;DHT22;21053;50.848;4.652;2023-05-29T02:54:25;14.40;99.90
34837;DHT22;21053;50.848;4.652;2023-05-29T02:56:51;14.40;99.90
34837;DHT22;21053;50.848;4.652;2023-05-29T02:59:18;14.40;99.90
34837;DHT22;21053;50.848;4.652;2023-05-29T03:01:44;14.40;99.90
34837;DHT22;21053;50.848;4.652;2023-05-29T03:04:13;14.30;99.90
34837;DHT22;21053;50.848;4.652;2023-05-29T03:06:41;14.20;99.90
34837;DHT22;21053;50.848;4.652;2023-05-29T03:09:08;14.20;99.90
34837;DHT22;21053;50.848;4.652;2023-05-29T03:11:37;14.20;99.90
34837;DHT22;21053;50.848;4.652;2023-05-29T03:14:06;14.00;99.90
34837;DHT22;21053;50.848;4.652;2023-05-29T03:16:38;14.00;99.90
34837;DHT22;21053;50.848;4.652;2023-05-29T03:19:07;13.90;99.90
34837;DHT22;21053;50.848;4.652;2023-05-29T03:21:42;13.90;99.90
34837;DHT22;21053;50.848;4.652;2023-05-29T03:24:09;13.90;99.90
34837;DHT22;21053;50.848;4.652;2023-05-29T03:26:38;13.80;99.90
34837;DHT22;21053;50.848;4.652;2023-05-29T03:29:05;13.90;99.90
34837;DHT22;21053;50.848;4.652;2023-05-29T03:31:32;13.90;99.90
34837;DHT22;21053;50.848;4.652;2023-05-29T03:34:00;13.90;99.90
34837;DHT22;21053;50.848;4.652;2023-05-29T03:36:28;13.80;99.90
34837;DHT22;21053;50.848;4.652;2023-05-29T03:39:00;13.70;99.90
34837;DHT22;21053;50.848;4.652;2023-05-29T03:41:28;13.70;99.90
34837;DHT22;21053;50.848;4.652;2023-05-29T03:44:00;13.80;99.90
34837;DHT22;21053;50.848;4.652;2023-05-29T03:46:29;13.80;99.90
34837;DHT22;21053;50.848;4.652;2023-05-29T03:48:58;13.70;99.90
34837;DHT22;21053;50.848;4.652;2023-05-29T03:51:24;13.60;99.90
34837;DHT22;21053;50.848;4.652;2023-05-29T03:53:50;13.60;99.90
34837;DHT22;21053;50.848;4.652;2023-05-29T03:56:17;13.70;99.80
34837;DHT22;21053;50.848;4.652;2023-05-29T03:58:45;13.60;99.60
34837;DHT22;21053;50.848;4.652;2023-05-29T04:01:12;13.60;99.40
34837;DHT22;21053;50.848;4.652;2023-05-29T04:03:41;13.70;99.30
34837;DHT22;21053;50.848;4.652;2023-05-29T04:06:10;13.60;99.30
34837;DHT22;21053;50.848;4.652;2023-05-29T04:08:37;13.60;99.20
34837;DHT22;21053;50.848;4.652;2023-05-29T04:11:06;13.60;99.00
34837;DHT22;21053;50.848;4.652;2023-05-29T04:13:35;13.50;98.80
34837;DHT22;21053;50.848;4.652;2023-05-29T04:16:04;13.50;98.80
34837;DHT22;21053;50.848;4.652;2023-05-29T04:18:33;13.50;98.70
34837;DHT22;21053;50.848;4.652;2023-05-29T04:21:02;13.50;98.80
34837;DHT22;21053;50.848;4.652;2023-05-29T04:23:29;13.50;98.60
34837;DHT22;21053;50.848;4.652;2023-05-29T04:25:57;13.50;98.80
34837;DHT22;21053;50.848;4.652;2023-05-29T04:28:26;13.60;98.50
34837;DHT22;21053;50.848;4.652;2023-05-29T04:30:55;13.40;98.40
34837;DHT22;21053;50.848;4.652;2023-05-29T04:33:25;13.40;98.50
34837;DHT22;21053;50.848;4.652;2023-05-29T04:35:50;13.40;98.70
34837;DHT22;21053;50.848;4.652;2023-05-29T04:38:20;13.40;98.60
34837;DHT22;21053;50.848;4.652;2023-05-29T04:40:53;13.40;98.00
34837;DHT22;21053;50.848;4.652;2023-05-29T04:43:25;13.50;97.90
34837;DHT22;21053;50.848;4.652;2023-05-29T04:45:56;13.50;98.00
34837;DHT22;21053;50.848;4.652;2023-05-29T04:48:25;13.50;97.60
34837;DHT22;21053;50.848;4.652;2023-05-29T04:50:56;13.40;97.40
34837;DHT22;21053;50.848;4.652;2023-05-29T04:53:22;13.40;98.00
34837;DHT22;21053;50.848;4.652;2023-05-29T04:55:50;13.50;97.70
34837;DHT22;21053;50.848;4.652;2023-05-29T04:58:16;13.40;97.80
34837;DHT22;21053;50.848;4.652;2023-05-29T05:00:45;13.40;97.70
34837;DHT22;21053;50.848;4.652;2023-05-29T05:03:14;13.40;97.80
34837;DHT22;21053;50.848;4.652;2023-05-29T05:05:45;13.40;97.60
34837;DHT22;21053;50.848;4.652;2023-05-29T05:08:13;13.40;97.70
34837;DHT22;21053;50.848;4.652;2023-05-29T05:10:41;13.50;97.60
34837;DHT22;21053;50.848;4.652;2023-05-29T05:13:10;13.60;97.20
34837;DHT22;21053;50.848;4.652;2023-05-29T05:15:40;13.70;97.50
34837;DHT22;21053;50.848;4.652;2023-05-29T05:18:10;13.60;97.20
34837;DHT22;21053;50.848;4.652;2023-05-29T05:20:38;13.50;97.40
34837;DHT22;21053;50.848;4.652;2023-05-29T05:23:04;13.50;97.40
34837;DHT22;21053;50.848;4.652;2023-05-29T05:25:30;13.70;97.60
34837;DHT22;21053;50.848;4.652;2023-05-29T05:27:57;13.70;97.30
34837;DHT22;21053;50.848;4.652;2023-05-29T05:30:25;13.70;97.40
34837;DHT22;21053;50.848;4.652;2023-05-29T05:32:51;13.70;97.20
34837;DHT22;21053;50.848;4.652;2023-05-29T05:35:20;13.90;97.20
34837;DHT22;21053;50.848;4.652;2023-05-29T05:37:48;13.90;97.10
34837;DHT22;21053;50.848;4.652;2023-05-29T05:40:18;13.80;96.80
34837;DHT22;21053;50.848;4.652;2023-05-29T05:42:45;13.70;97.00
34837;DHT22;21053;50.848;4.652;2023-05-29T05:45:14;13.80;97.10
34837;DHT22;21053;50.848;4.652;2023-05-29T05:47:43;13.80;97.40
34837;DHT22;21053;50.848;4.652;2023-05-29T05:50:11;13.90;96.90
34837;DHT22;21053;50.848;4.652;2023-05-29T05:52:37;14.00;97.20
34837;DHT22;21053;50.848;4.652;2023-05-29T05:55:06;14.10;97.00
34837;DHT22;21053;50.848;4.652;2023-05-29T05:57:35;14.10;96.90
34837;DHT22;21053;50.848;4.652;2023-05-29T06:00:03;14.10;97.10
34837;DHT22;21053;50.848;4.652;2023-05-29T06:02:34;14.20;96.50
34837;DHT22;21053;50.848;4.652;2023-05-29T06:05:03;14.30;96.50
34837;DHT22;21053;50.848;4.652;2023-05-29T06:07:34;14.30;96.40
34837;DHT22;21053;50.848;4.652;2023-05-29T06:10:04;14.30;96.50
34837;DHT22;21053;50.848;4.652;2023-05-29T06:12:33;14.30;96.30
34837;DHT22;21053;50.848;4.652;2023-05-29T06:15:01;14.30;96.40
34837;DHT22;21053;50.848;4.652;2023-05-29T06:17:26;14.40;96.60
34837;DHT22;21053;50.848;4.652;2023-05-29T06:19:55;14.40;96.30
34837;DHT22;21053;50.848;4.652;2023-05-29T06:22:24;14.40;96.30
34837;DHT22;21053;50.848;4.652;2023-05-29T06:24:55;14.50;96.70
34837;DHT22;21053;50.848;4.652;2023-05-29T06:27:21;14.50;96.60
34837;DHT22;21053;50.848;4.652;2023-05-29T06:29:51;14.60;96.50
34837;DHT22;21053;50.848;4.652;2023-05-29T06:32:18;14.70;95.70
34837;DHT22;21053;50.848;4.652;2023-05-29T06:34:47;14.60;96.00
34837;DHT22;21053;50.848;4.652;2023-05-29T06:37:14;14.80;96.30
34837;DHT22;21053;50.848;4.652;2023-05-29T06:39:45;14.80;96.40
34837;DHT22;21053;50.848;4.652;2023-05-29T06:42:14;14.90;95.90
34837;DHT22;21053;50.848;4.652;2023-05-29T06:44:43;15.00;95.70
34837;DHT22;21053;50.848;4.652;2023-05-29T06:47:09;15.20;95.50
34837;DHT22;21053;50.848;4.652;2023-05-29T06:49:36;15.20;95.60
34837;DHT22;21053;50.848;4.652;2023-05-29T06:52:05;15.10;95.40
34837;DHT22;21053;50.848;4.652;2023-05-29T06:54:33;15.00;95.40
34837;DHT22;21053;50.848;4.652;2023-05-29T06:57:02;15.20;95.50
34837;DHT22;21053;50.848;4.652;2023-05-29T06:59:31;15.10;95.30
34837;DHT22;21053;50.848;4.652;2023-05-29T07:02:00;15.10;95.30
34837;DHT22;21053;50.848;4.652;2023-05-29T07:04:28;15.20;95.40
34837;DHT22;21053;50.848;4.652;2023-05-29T07:06:55;15.30;95.50
34837;DHT22;21053;50.848;4.652;2023-05-29T07:09:27;15.30;94.90
34837;DHT22;21053;50.848;4.652;2023-05-29T07:11:53;15.40;95.10
34837;DHT22;21053;50.848;4.652;2023-05-29T07:14:22;15.40;94.70
34837;DHT22;21053;50.848;4.652;2023-05-29T07:16:49;15.50;95.40
34837;DHT22;21053;50.848;4.652;2023-05-29T07:19:17;15.50;94.40
34837;DHT22;21053;50.848;4.652;2023-05-29T07:21:46;15.70;95.00
34837;DHT22;21053;50.848;4.652;2023-05-29T07:24:15;15.80;94.00
34837;DHT22;21053;50.848;4.652;2023-05-29T07:26:40;15.80;94.30
34837;DHT22;21053;50.848;4.652;2023-05-29T07:29:09;15.90;94.50
34837;DHT22;21053;50.848;4.652;2023-05-29T07:31:37;16.00;93.80
34837;DHT22;21053;50.848;4.652;2023-05-29T07:34:07;16.10;93.70
34837;DHT22;21053;50.848;4.652;2023-05-29T07:36:34;16.20;93.90
34837;DHT22;21053;50.848;4.652;2023-05-29T07:39:05;16.30;94.10
34837;DHT22;21053;50.848;4.652;2023-05-29T07:41:33;16.50;94.30
34837;DHT22;21053;50.848;4.652;2023-05-29T07:43:58;16.50;93.30
34837;DHT22;21053;50.848;4.652;2023-05-29T07:46:25;16.60;93.10
34837;DHT22;21053;50.848;4.652;2023-05-29T07:48:51;16.80;93.40
34837;DHT22;21053;50.848;4.652;2023-05-29T07:51:19;16.90;93.10
34837;DHT22;21053;50.848;4.652;2023-05-29T07:53:45;17.00;92.90
34837;DHT22;21053;50.848;4.652;2023-05-29T07:56:13;17.00;92.30
34837;DHT22;21053;50.848;4.652;2023-05-29T07:58:39;17.10;92.00
34837;DHT22;21053;50.848;4.652;2023-05-29T08:01:06;17.20;92.40
34837;DHT22;21053;50.848;4.652;2023-05-29T08:03:34;17.20;92.00
34837;DHT22;21053;50.848;4.652;2023-05-29T08:06:02;17.40;92.30
34837;DHT22;21053;50.848;4.652;2023-05-29T08:08:29;17.40;92.00
34837;DHT22;21053;50.848;4.652;2023-05-29T08:10:55;17.30;90.50
34837;DHT22;21053;50.848;4.652;2023-05-29T08:13:22;17.40;91.10
34837;DHT22;21053;50.848;4.652;2023-05-29T08:15:51;17.40;90.60
34837;DHT22;21053;50.848;4.652;2023-05-29T08:18:17;17.50;91.40
34837;DHT22;21053;50.848;4.652;2023-05-29T08:20:46;17.60;91.30
34837;DHT22;21053;50.848;4.652;2023-05-29T08:23:16;17.60;90.60
34837;DHT22;21053;50.848;4.652;2023-05-29T08:25:43;17.70;91.60
34837;DHT22;21053;50.848;4.652;2023-05-29T08:28:09;17.90;92.00
34837;DHT22;21053;50.848;4.652;2023-05-29T08:30:37;18.00;90.50
34837;DHT22;21053;50.848;4.652;2023-05-29T08:33:03;18.20;91.60
34837;DHT22;21053;50.848;4.652;2023-05-29T08:35:30;18.30;90.90
34837;DHT22;21053;50.848;4.652;2023-05-29T08:37:59;18.40;91.30
34837;DHT22;21053;50.848;4.652;2023-05-29T08:40:25;18.60;90.60
34837;DHT22;21053;50.848;4.652;2023-05-29T08:42:57;18.70;89.60
34837;DHT22;21053;50.848;4.652;2023-05-29T08:45:24;18.70;89.60
34837;DHT22;21053;50.848;4.652;2023-05-29T08:47:52;18.60;89.60
34837;DHT22;21053;50.848;4.652;2023-05-29T08:50:20;18.50;88.70
34837;DHT22;21053;50.848;4.652;2023-05-29T08:52:49;18.70;90.20
34837;DHT22;21053;50.848;4.652;2023-05-29T08:55:19;18.60;87.90
34837;DHT22;21053;50.848;4.652;2023-05-29T08:57:46;18.40;89.40
34837;DHT22;21053;50.848;4.652;2023-05-29T09:00:13;18.60;90.60
34837;DHT22;21053;50.848;4.652;2023-05-29T09:02:46;18.60;90.20
34837;DHT22;21053;50.848;4.652;2023-05-29T09:05:12;18.80;89.30
34837;DHT22;21053;50.848;4.652;2023-05-29T09:07:39;18.80;88.40
34837;DHT22;21053;50.848;4.652;2023-05-29T09:10:07;19.10;89.60
34837;DHT22;21053;50.848;4.652;2023-05-29T09:12:36;19.20;89.00
34837;DHT22;21053;50.848;4.652;2023-05-29T09:15:26;19.30;88.70
34837;DHT22;21053;50.848;4.652;2023-05-29T09:17:53;19.20;86.90
34837;DHT22;21053;50.848;4.652;2023-05-29T09:20:25;19.20;87.90
34837;DHT22;21053;50.848;4.652;2023-05-29T09:23:02;19.30;88.80
34837;DHT22;21053;50.848;4.652;2023-05-29T09:25:31;19.50;87.80
34837;DHT22;21053;50.848;4.652;2023-05-29T09:28:14;19.60;85.30
34837;DHT22;21053;50.848;4.652;2023-05-29T09:30:46;19.60;84.80
34837;DHT22;21053;50.848;4.652;2023-05-29T09:33:14;19.60;85.00
34837;DHT22;21053;50.848;4.652;2023-05-29T09:35:41;19.60;85.50
34837;DHT22;21053;50.848;4.652;2023-05-29T09:38:09;19.70;86.40
34837;DHT22;21053;50.848;4.652;2023-05-29T09:40:37;19.70;85.00
34837;DHT22;21053;50.848;4.652;2023-05-29T09:43:14;19.80;84.30
34837;DHT22;21053;50.848;4.652;2023-05-29T09:45:46;19.90;85.20
34837;DHT22;21053;50.848;4.652;2023-05-29T09:48:16;19.90;85.40
34837;DHT22;21053;50.848;4.652;2023-05-29T09:50:43;19.90;83.70
34837;DHT22;21053;50.848;4.652;2023-05-29T09:53:22;20.00;84.30
34837;DHT22;21053;50.848;4.652;2023-05-29T09:55:52;20.00;83.50
34837;DHT22;21053;50.848;4.652;2023-05-29T09:58:23;20.20;83.90
34837;DHT22;21053;50.848;4.652;2023-05-29T10:00:49;20.40;83.90
34837;DHT22;21053;50.848;4.652;2023-05-29T10:03:19;20.50;82.50
34837;DHT22;21053;50.848;4.652;2023-05-29T10:05:52;20.60;81.50
34837;DHT22;21053;50.848;4.652;2023-05-29T10:08:20;20.60;82.90
34837;DHT22;21053;50.848;4.652;2023-05-29T10:10:49;20.80;81.50
34837;DHT22;21053;50.848;4.652;2023-05-29T10:13:22;20.70;82.00
34837;DHT22;21053;50.848;4.652;2023-05-29T10:15:51;20.90;83.70
34837;DHT22;21053;50.848;4.652;2023-05-29T10:20:52;21.30;84.50
34837;DHT22;21053;50.848;4.652;2023-05-29T10:23:24;21.60;80.40
34837;DHT22;21053;50.848;4.652;2023-05-29T10:25:53;21.60;80.50
34837;DHT22;21053;50.848;4.652;2023-05-29T10:28:22;21.70;82.60
34837;DHT22;21053;50.848;4.652;2023-05-29T10:30:55;21.70;78.20
34837;DHT22;21053;50.848;4.652;2023-05-29T10:36:14;21.80;78.80
34837;DHT22;21053;50.848;4.652;2023-05-29T10:38:45;21.80;78.40
34837;DHT22;21053;50.848;4.652;2023-05-29T10:41:29;22.00;78.40
34837;DHT22;21053;50.848;4.652;2023-05-29T10:44:01;22.20;78.90
34837;DHT22;21053;50.848;4.652;2023-05-29T10:49:21;22.30;75.60
34837;DHT22;21053;50.848;4.652;2023-05-29T10:51:50;22.00;75.30
34837;DHT22;21053;50.848;4.652;2023-05-29T10:54:21;21.90;75.60
34837;DHT22;21053;50.848;4.652;2023-05-29T10:56:57;22.00;74.40
34837;DHT22;21053;50.848;4.652;2023-05-29T10:59:23;22.10;77.80
34837;DHT22;21053;50.848;4.652;2023-05-29T11:02:04;22.30;75.50
34837;DHT22;21053;50.848;4.652;2023-05-29T11:04:36;22.40;76.50
34837;DHT22;21053;50.848;4.652;2023-05-29T11:07:03;22.50;74.20
34837;DHT22;21053;50.848;4.652;2023-05-29T11:09:36;22.60;76.10
34837;DHT22;21053;50.848;4.652;2023-05-29T11:12:27;22.70;74.10
34837;DHT22;21053;50.848;4.652;2023-05-29T11:15:11;22.90;75.40
34837;DHT22;21053;50.848;4.652;2023-05-29T11:17:47;23.10;73.70
34837;DHT22;21053;50.848;4.652;2023-05-29T11:23:31;23.00;73.10
34837;DHT22;21053;50.848;4.652;2023-05-29T11:25:59;23.10;72.80
34837;DHT22;21053;50.848;4.652;2023-05-29T11:28:27;23.10;74.20
34837;DHT22;21053;50.848;4.652;2023-05-29T11:30:56;22.90;73.90
34837;DHT22;21053;50.848;4.652;2023-05-29T11:33:31;23.00;73.20
34837;DHT22;21053;50.848;4.652;2023-05-29T11:36:00;23.20;73.40
34837;DHT22;21053;50.848;4.652;2023-05-29T11:38:28;23.10;70.40
34837;DHT22;21053;50.848;4.652;2023-05-29T11:40:57;23.00;71.20
34837;DHT22;21053;50.848;4.652;2023-05-29T11:43:31;23.10;73.80
34837;DHT22;21053;50.848;4.652;2023-05-29T11:45:59;23.30;76.00
34837;DHT22;21053;50.848;4.652;2023-05-29T11:48:28;23.30;72.50
34837;DHT22;21053;50.848;4.652;2023-05-29T11:50:54;23.40;71.70
34837;DHT22;21053;50.848;4.652;2023-05-29T11:53:23;23.40;72.50
34837;DHT22;21053;50.848;4.652;2023-05-29T11:55:53;23.40;72.00
34837;DHT22;21053;50.848;4.652;2023-05-29T11:58:21;23.30;70.60
34837;DHT22;21053;50.848;4.652;2023-05-29T12:00:50;23.50;71.30
34837;DHT22;21053;50.848;4.652;2023-05-29T12:03:18;23.40;70.90
34837;DHT22;21053;50.848;4.652;2023-05-29T12:05:50;23.70;71.80
34837;DHT22;21053;50.848;4.652;2023-05-29T12:08:21;23.70;70.20
34837;DHT22;21053;50.848;4.652;2023-05-29T12:10:52;23.60;68.60
34837;DHT22;21053;50.848;4.652;2023-05-29T12:13:24;23.50;69.60
34837;DHT22;21053;50.848;4.652;2023-05-29T12:16:05;23.60;73.70
34837;DHT22;21053;50.848;4.652;2023-05-29T12:18:34;23.80;72.90
34837;DHT22;21053;50.848;4.652;2023-05-29T12:21:06;24.00;72.60
34837;DHT22;21053;50.848;4.652;2023-05-29T12:23:37;23.90;71.10
34837;DHT22;21053;50.848;4.652;2023-05-29T12:26:05;23.70;70.00
34837;DHT22;21053;50.848;4.652;2023-05-29T12:28:34;23.40;70.80
34837;DHT22;21053;50.848;4.652;2023-05-29T12:31:00;23.50;70.10
34837;DHT22;21053;50.848;4.652;2023-05-29T12:33:30;23.40;69.50
34837;DHT22;21053;50.848;4.652;2023-05-29T12:36:06;23.30;69.00
34837;DHT22;21053;50.848;4.652;2023-05-29T12:38:46;23.10;69.50
34837;DHT22;21053;50.848;4.652;2023-05-29T12:41:35;23.10;70.90
34837;DHT22;21053;50.848;4.652;2023-05-29T12:44:05;23.20;71.40
34837;DHT22;21053;50.848;4.652;2023-05-29T12:46:41;23.30;70.50
34837;DHT22;21053;50.848;4.652;2023-05-29T12:49:15;23.20;69.80
34837;DHT22;21053;50.848;4.652;2023-05-29T12:51:45;23.00;68.70
34837;DHT22;21053;50.848;4.652;2023-05-29T12:54:14;22.80;69.60
34837;DHT22;21053;50.848;4.652;2023-05-29T12:56:43;22.90;70.90
34837;DHT22;21053;50.848;4.652;2023-05-29T12:59:14;23.10;72.30
34837;DHT22;21053;50.848;4.652;2023-05-29T13:01:41;23.10;69.40
34837;DHT22;21053;50.848;4.652;2023-05-29T13:04:08;23.00;71.20
34837;DHT22;21053;50.848;4.652;2023-05-29T13:06:35;23.10;71.10
34837;DHT22;21053;50.848;4.652;2023-05-29T13:09:02;23.10;70.80
34837;DHT22;21053;50.848;4.652;2023-05-29T13:11:29;22.90;69.00
34837;DHT22;21053;50.848;4.652;2023-05-29T13:13:58;22.90;70.70
34837;DHT22;21053;50.848;4.652;2023-05-29T13:16:26;23.00;70.70
34837;DHT22;21053;50.848;4.652;2023-05-29T13:18:58;23.00;68.20
34837;DHT22;21053;50.848;4.652;2023-05-29T13:21:30;23.00;70.60
34837;DHT22;21053;50.848;4.652;2023-05-29T13:23:57;23.10;71.40
34837;DHT22;21053;50.848;4.652;2023-05-29T13:26:23;23.20;71.20
34837;DHT22;21053;50.848;4.652;2023-05-29T13:28:52;23.40;70.70
34837;DHT22;21053;50.848;4.652;2023-05-29T13:31:18;23.70;69.70
34837;DHT22;21053;50.848;4.652;2023-05-29T13:33:48;23.70;67.40
34837;DHT22;21053;50.848;4.652;2023-05-29T13:36:14;23.70;70.10
34837;DHT22;21053;50.848;4.652;2023-05-29T13:38:41;23.60;68.70
34837;DHT22;21053;50.848;4.652;2023-05-29T13:41:09;23.50;70.50
34837;DHT22;21053;50.848;4.652;2023-05-29T13:43:40;23.50;68.70
34837;DHT22;21053;50.848;4.652;2023-05-29T13:46:06;23.50;67.60
34837;DHT22;21053;50.848;4.652;2023-05-29T13:48:38;23.40;67.40
34837;DHT22;21053;50.848;4.652;2023-05-29T13:51:05;23.60;70.30
34837;DHT22;21053;50.848;4.652;2023-05-29T13:53:50;23.40;68.90
34837;DHT22;21053;50.848;4.652;2023-05-29T13:56:19;23.20;69.80
34837;DHT22;21053;50.848;4.652;2023-05-29T13:58:46;23.20;70.10
34837;DHT22;21053;50.848;4.652;2023-05-29T14:01:15;23.20;69.40
34837;DHT22;21053;50.848;4.652;2023-05-29T14:03:46;23.10;70.70
34837;DHT22;21053;50.848;4.652;2023-05-29T14:06:12;23.40;72.00
34837;DHT22;21053;50.848;4.652;2023-05-29T14:08:41;23.40;69.00
34837;DHT22;21053;50.848;4.652;2023-05-29T14:11:09;23.40;68.00
34837;DHT22;21053;50.848;4.652;2023-05-29T14:15:34;23.50;69.20
34837;DHT22;21053;50.848;4.652;2023-05-29T14:18:00;23.40;69.20
34837;DHT22;21053;50.848;4.652;2023-05-29T14:20:28;23.30;67.80
34837;DHT22;21053;50.848;4.652;2023-05-29T14:22:54;23.20;69.60
34837;DHT22;21053;50.848;4.652;2023-05-29T14:25:21;23.30;68.90
34837;DHT22;21053;50.848;4.652;2023-05-29T14:27:49;23.40;70.60
34837;DHT22;21053;50.848;4.652;2023-05-29T14:30:15;23.50;67.50
34837;DHT22;21053;50.848;4.652;2023-05-29T14:32:43;23.60;68.20
34837;DHT22;21053;50.848;4.652;2023-05-29T14:35:12;23.60;67.20
34837;DHT22;21053;50.848;4.652;2023-05-29T14:37:41;23.60;68.50
34837;DHT22;21053;50.848;4.652;2023-05-29T14:40:09;23.40;67.20
34837;DHT22;21053;50.848;4.652;2023-05-29T14:42:41;23.30;69.30
34837;DHT22;21053;50.848;4.652;2023-05-29T14:45:07;22.90;69.80
34837;DHT22;21053;50.848;4.652;2023-05-29T14:47:33;22.80;71.10
34837;DHT22;21053;50.848;4.652;2023-05-29T14:49:59;22.70;70.60
34837;DHT22;21053;50.848;4.652;2023-05-29T14:52:28;22.60;70.30
34837;DHT22;21053;50.848;4.652;2023-05-29T14:54:57;22.70;70.20
34837;DHT22;21053;50.848;4.652;2023-05-29T14:57:26;22.50;70.20
34837;DHT22;21053;50.848;4.652;2023-05-29T14:59:55;22.60;73.70
34837;DHT22;21053;50.848;4.652;2023-05-29T15:02:21;22.60;71.50
34837;DHT22;21053;50.848;4.652;2023-05-29T15:04:48;22.50;69.30
34837;DHT22;21053;50.848;4.652;2023-05-29T15:07:17;22.50;69.90
34837;DHT22;21053;50.848;4.652;2023-05-29T15:09:44;22.60;70.20
34837;DHT22;21053;50.848;4.652;2023-05-29T15:12:11;22.50;70.70
34837;DHT22;21053;50.848;4.652;2023-05-29T15:14:38;22.50;70.40
34837;DHT22;21053;50.848;4.652;2023-05-29T15:17:04;22.40;70.70
34837;DHT22;21053;50.848;4.652;2023-05-29T15:19:30;22.50;71.20
34837;DHT22;21053;50.848;4.652;2023-05-29T15:21:57;22.50;70.80
34837;DHT22;21053;50.848;4.652;2023-05-29T15:24:26;22.60;71.00
34837;DHT22;21053;50.848;4.652;2023-05-29T15:26:52;22.50;69.70
34837;DHT22;21053;50.848;4.652;2023-05-29T15:29:21;22.40;70.30
34837;DHT22;21053;50.848;4.652;2023-05-29T15:31:47;22.30;69.60
34837;DHT22;21053;50.848;4.652;2023-05-29T15:34:14;22.20;70.40
34837;DHT22;21053;50.848;4.652;2023-05-29T15:36:40;22.20;71.40
34837;DHT22;21053;50.848;4.652;2023-05-29T15:39:06;22.30;71.50
34837;DHT22;21053;50.848;4.652;2023-05-29T15:41:35;22.30;72.40
34837;DHT22;21053;50.848;4.652;2023-05-29T15:44:01;22.10;69.90
34837;DHT22;21053;50.848;4.652;2023-05-29T15:46:29;21.90;71.70
34837;DHT22;21053;50.848;4.652;2023-05-29T15:48:57;21.80;70.80
34837;DHT22;21053;50.848;4.652;2023-05-29T15:51:26;21.70;71.60
34837;DHT22;21053;50.848;4.652;2023-05-29T15:54:02;21.80;73.30
34837;DHT22;21053;50.848;4.652;2023-05-29T15:56:31;21.80;73.20
34837;DHT22;21053;50.848;4.652;2023-05-29T15:58:59;21.80;72.20